Time;durP1;ratioP1;P1;durP2;ratioP2;P2;SDS_P1;SDS_P2;PMS_P1;PMS_P2;Temp;Humidity;BMP_temperature;BMP_pressure;BME280_temperature;BME280_humidity;BME280_pressure;Samples;Min_cycle;Max_cycle;Signal;HPM_P1;HPM_P2
2024/03/05 00:00:58;;;;;;;44.40;27.60;;;7.00;99.90;;;;;;4973544;28;20199;-68
2024/03/05 00:03:24;;;;;;;48.00;28.07;;;7.00;99.90;;;;;;5009550;28;20523;-71
2024/03/05 00:05:50;;;;;;;42.50;26.70;;;6.90;99.90;;;;;;5016305;28;20622;-73
2024/03/05 00:08:16;;;;;;;43.30;25.83;;;6.80;99.90;;;;;;5019718;28;20437;-69
2024/03/05 00:10:43;;;;;;;40.27;25.03;;;6.80;99.90;;;;;;5020017;28;20263;-72
2024/03/05 00:13:10;;;;;;;42.20;25.37;;;6.70;99.90;;;;;;5019911;28;20422;-71
2024/03/05 00:15:36;;;;;;;38.73;23.30;;;6.70;99.90;;;;;;5019135;28;20475;-70
2024/03/05 00:18:04;;;;;;;40.40;23.50;;;6.70;99.90;;;;;;5012284;28;20210;-71
2024/03/05 00:20:30;;;;;;;36.50;22.43;;;6.70;99.90;;;;;;5018484;28;20195;-72
2024/03/05 00:22:58;;;;;;;33.20;21.50;;;6.60;99.90;;;;;;5016936;28;20473;-70
2024/03/05 00:25:24;;;;;;;34.17;20.43;;;6.60;99.90;;;;;;5014876;28;20481;-72
2024/03/05 00:27:49;;;;;;;36.27;21.20;;;6.60;99.90;;;;;;5019593;28;20426;-72
2024/03/05 00:30:16;;;;;;;48.73;27.90;;;6.50;99.90;;;;;;5020585;28;21424;-72
2024/03/05 00:32:42;;;;;;;46.33;26.93;;;6.50;99.90;;;;;;5019430;28;20198;-70
2024/03/05 00:35:09;;;;;;;53.57;31.30;;;6.50;99.90;;;;;;5019828;28;20426;-71
2024/03/05 00:37:38;;;;;;;54.33;29.10;;;6.50;99.90;;;;;;5022078;28;20438;-71
2024/03/05 00:40:11;;;;;;;47.77;28.77;;;6.50;99.90;;;;;;5020207;28;20429;-71
2024/03/05 00:42:37;;;;;;;45.27;29.10;;;6.50;99.90;;;;;;5009633;28;20490;-70
2024/03/05 00:45:07;;;;;;;46.40;28.00;;;6.50;99.90;;;;;;5015946;28;20714;-72
2024/03/05 00:47:33;;;;;;;46.37;25.73;;;6.60;99.90;;;;;;5023000;28;20442;-72
2024/03/05 00:50:06;;;;;;;43.30;26.00;;;6.60;99.90;;;;;;5020981;28;20648;-70
2024/03/05 00:52:33;;;;;;;41.97;25.37;;;6.70;99.90;;;;;;5018379;28;20437;-71
2024/03/05 00:54:59;;;;;;;37.03;24.00;;;6.70;99.90;;;;;;5014493;28;20448;-70
2024/03/05 00:57:25;;;;;;;35.80;22.30;;;6.80;99.90;;;;;;5003035;28;20449;-69
2024/03/05 00:59:53;;;;;;;43.53;27.40;;;6.80;99.90;;;;;;5013093;28;20413;-69
2024/03/05 01:02:19;;;;;;;46.47;27.40;;;6.90;99.90;;;;;;5012523;28;20504;-71
2024/03/05 01:04:45;;;;;;;47.37;27.97;;;6.90;99.90;;;;;;5011316;28;20446;-70
2024/03/05 01:07:10;;;;;;;50.53;29.50;;;6.90;99.90;;;;;;5015509;28;20493;-71
2024/03/05 01:09:36;;;;;;;47.17;27.40;;;6.90;99.90;;;;;;5015637;28;20519;-70
2024/03/05 01:12:02;;;;;;;52.90;26.80;;;7.00;99.90;;;;;;5010632;28;20246;-70
2024/03/05 01:14:27;;;;;;;48.67;29.90;;;7.00;99.90;;;;;;5012249;28;20661;-71
2024/03/05 01:16:53;;;;;;;58.03;29.90;;;7.00;99.90;;;;;;5011554;28;20508;-70
2024/03/05 01:19:18;;;;;;;46.80;29.90;;;7.00;99.90;;;;;;5008152;28;20202;-69
2024/03/05 01:21:45;;;;;;;56.30;31.20;;;7.00;99.90;;;;;;5011753;28;20227;-69
2024/03/05 01:24:11;;;;;;;50.23;27.60;;;6.90;99.90;;;;;;5012553;28;20303;-70
2024/03/05 01:26:39;;;;;;;47.33;27.80;;;6.80;99.90;;;;;;5006319;28;20969;-70
2024/03/05 01:29:05;;;;;;;47.83;26.67;;;6.80;99.90;;;;;;5012449;28;20191;-70
2024/03/05 01:31:33;;;;;;;59.33;28.17;;;6.80;99.90;;;;;;5013750;28;20449;-70
2024/03/05 01:34:00;;;;;;;48.90;28.40;;;6.70;99.90;;;;;;5004420;28;20429;-69
2024/03/05 01:36:25;;;;;;;48.77;29.30;;;6.70;99.90;;;;;;5015020;28;20520;-69
2024/03/05 01:38:51;;;;;;;54.27;30.50;;;6.60;99.90;;;;;;5015352;28;20908;-70
2024/03/05 01:41:18;;;;;;;57.00;30.97;;;6.60;99.90;;;;;;5012304;28;20195;-70
2024/03/05 01:43:44;;;;;;;61.43;32.50;;;6.60;99.90;;;;;;5009199;28;20441;-69
2024/03/05 01:46:13;;;;;;;67.47;33.23;;;6.50;99.90;;;;;;5014220;28;20546;-71
2024/03/05 01:48:41;;;;;;;59.77;30.87;;;6.50;99.90;;;;;;5010674;28;20415;-70
2024/03/05 01:51:07;;;;;;;57.93;34.13;;;6.50;99.90;;;;;;5012378;28;20512;-70
2024/03/05 01:53:33;;;;;;;66.37;37.77;;;6.50;99.90;;;;;;5010254;28;20426;-72
2024/03/05 01:55:59;;;;;;;59.67;32.60;;;6.40;99.90;;;;;;5006329;28;20434;-69
2024/03/05 01:58:25;;;;;;;56.40;33.20;;;6.40;99.90;;;;;;5014364;28;20227;-71
2024/03/05 02:00:51;;;;;;;56.20;31.17;;;6.40;99.90;;;;;;5011963;28;20187;-71
2024/03/05 02:03:17;;;;;;;63.70;34.63;;;6.40;99.90;;;;;;5013832;28;20515;-68
2024/03/05 02:05:44;;;;;;;57.20;32.30;;;6.40;99.90;;;;;;5014521;28;20457;-69
2024/03/05 02:08:11;;;;;;;72.23;35.40;;;6.40;99.90;;;;;;5012256;28;20467;-69
2024/03/05 02:10:37;;;;;;;56.70;31.17;;;6.40;99.90;;;;;;5006746;28;20426;-71
2024/03/05 02:13:03;;;;;;;56.80;30.27;;;6.40;99.90;;;;;;5009093;28;20489;-70
2024/03/05 02:15:29;;;;;;;63.10;31.10;;;6.40;99.90;;;;;;5005474;28;20423;-69
2024/03/05 02:17:55;;;;;;;64.40;35.20;;;6.40;99.90;;;;;;4980324;28;20535;-71
2024/03/05 02:20:21;;;;;;;60.23;31.93;;;6.50;99.90;;;;;;5011509;28;20207;-69
2024/03/05 02:22:46;;;;;;;71.13;36.70;;;6.50;99.90;;;;;;5012199;28;20896;-69
2024/03/05 02:25:12;;;;;;;61.23;32.17;;;6.50;99.90;;;;;;5002716;28;20210;-70
2024/03/05 02:27:39;;;;;;;66.10;36.90;;;6.60;99.90;;;;;;5009186;28;20222;-68
2024/03/05 02:30:10;;;;;;;64.93;33.93;;;6.60;99.90;;;;;;5016654;28;20194;-69
2024/03/05 02:32:38;;;;;;;65.37;33.90;;;6.60;99.90;;;;;;5017930;28;20419;-69
2024/03/05 02:35:05;;;;;;;56.70;32.20;;;6.60;99.90;;;;;;5010694;28;20433;-71
2024/03/05 02:37:30;;;;;;;62.63;34.30;;;6.60;99.90;;;;;;5018921;28;20534;-70
2024/03/05 02:39:56;;;;;;;62.93;34.30;;;6.60;99.90;;;;;;5014652;28;20506;-70
2024/03/05 02:42:22;;;;;;;62.67;34.47;;;6.60;99.90;;;;;;5007425;28;20218;-69
2024/03/05 02:44:48;;;;;;;68.33;33.23;;;6.60;99.90;;;;;;5017949;28;20274;-70
2024/03/05 02:47:13;;;;;;;60.63;32.17;;;6.60;99.90;;;;;;5011579;28;20468;-69
2024/03/05 02:49:40;;;;;;;66.70;35.17;;;6.60;99.90;;;;;;5012434;28;20222;-69
2024/03/05 02:52:06;;;;;;;66.53;32.33;;;6.60;99.90;;;;;;5017361;28;20238;-70
2024/03/05 02:54:33;;;;;;;53.23;30.30;;;6.60;99.90;;;;;;5017718;28;20417;-69
2024/03/05 02:56:59;;;;;;;56.03;29.73;;;6.60;99.90;;;;;;4997902;28;20453;-69
2024/03/05 02:59:24;;;;;;;62.03;30.37;;;6.60;99.90;;;;;;5014161;28;20445;-69
2024/03/05 03:01:50;;;;;;;52.57;27.57;;;6.60;99.90;;;;;;5017711;28;20214;-70
2024/03/05 03:04:16;;;;;;;54.93;30.60;;;6.60;99.90;;;;;;4986825;28;20626;-69
2024/03/05 03:06:43;;;;;;;63.43;32.13;;;6.60;99.90;;;;;;5017487;28;20272;-71
2024/03/05 03:09:08;;;;;;;63.23;32.10;;;6.60;99.90;;;;;;5017537;28;20230;-69
2024/03/05 03:11:34;;;;;;;55.70;29.80;;;6.70;99.90;;;;;;5012692;28;20426;-71
2024/03/05 03:14:00;;;;;;;51.73;29.17;;;6.70;99.90;;;;;;5017724;28;20607;-69
2024/03/05 03:16:26;;;;;;;55.67;29.70;;;6.70;99.90;;;;;;5008589;28;20226;-69
2024/03/05 03:18:52;;;;;;;56.27;30.87;;;6.70;99.90;;;;;;5009952;28;20430;-70
2024/03/05 03:21:17;;;;;;;53.93;29.67;;;6.70;99.90;;;;;;5017095;28;20198;-69
2024/03/05 03:23:44;;;;;;;47.03;28.67;;;6.70;99.90;;;;;;5015980;28;20191;-70
2024/03/05 03:26:11;;;;;;;54.17;29.40;;;6.70;99.90;;;;;;5016742;28;20209;-72
2024/03/05 03:28:37;;;;;;;42.20;25.20;;;6.60;99.90;;;;;;5006231;28;20441;-69
2024/03/05 03:31:05;;;;;;;52.20;27.07;;;6.60;99.90;;;;;;5017601;28;20429;-70
2024/03/05 03:33:31;;;;;;;44.23;24.60;;;6.60;99.90;;;;;;5005349;28;20435;-69
2024/03/05 03:35:57;;;;;;;49.83;28.40;;;6.60;99.90;;;;;;5013500;28;20448;-70
2024/03/05 03:38:23;;;;;;;48.47;27.43;;;6.60;99.90;;;;;;5017299;28;20514;-69
2024/03/05 03:40:49;;;;;;;44.57;25.73;;;6.50;99.90;;;;;;5009176;28;20785;-70
2024/03/05 03:43:15;;;;;;;51.70;27.83;;;6.50;99.90;;;;;;5010272;28;20222;-71
2024/03/05 03:45:41;;;;;;;55.93;30.93;;;6.60;99.90;;;;;;5015494;28;20214;-71
2024/03/05 03:48:07;;;;;;;58.10;30.10;;;6.60;99.90;;;;;;5012828;28;20442;-70
2024/03/05 03:50:32;;;;;;;61.93;33.80;;;6.60;99.90;;;;;;5012521;28;20210;-71
2024/03/05 03:52:58;;;;;;;58.10;31.37;;;6.60;99.90;;;;;;4988756;28;20441;-69
2024/03/05 03:55:24;;;;;;;67.30;34.33;;;6.60;99.90;;;;;;5016440;28;20186;-71
2024/03/05 03:57:51;;;;;;;58.00;32.37;;;6.70;99.90;;;;;;5008840;28;20199;-70
2024/03/05 04:00:17;;;;;;;55.80;29.97;;;6.70;99.90;;;;;;5014894;28;20187;-70
2024/03/05 04:02:42;;;;;;;63.87;34.57;;;6.70;99.90;;;;;;5015465;28;20544;-71
2024/03/05 04:05:11;;;;;;;64.63;35.80;;;6.70;99.90;;;;;;5013167;28;20455;-69
2024/03/05 04:07:38;;;;;;;64.77;36.63;;;6.80;99.90;;;;;;5013709;28;20207;-68
2024/03/05 04:10:06;;;;;;;62.93;33.97;;;6.80;99.90;;;;;;5013708;28;20505;-70
2024/03/05 04:12:33;;;;;;;67.40;34.43;;;6.80;99.90;;;;;;5007979;28;20896;-70
2024/03/05 04:14:58;;;;;;;65.90;36.27;;;6.80;99.90;;;;;;5010435;28;20850;-70
2024/03/05 04:17:24;;;;;;;74.73;35.80;;;6.80;99.90;;;;;;5014833;28;20581;-69
2024/03/05 04:19:50;;;;;;;64.20;34.93;;;6.80;99.90;;;;;;5011061;28;20194;-70
2024/03/05 04:22:15;;;;;;;63.10;34.73;;;6.90;99.90;;;;;;5011601;28;20222;-69
2024/03/05 04:24:55;;;;;;;69.40;34.27;;;6.90;99.90;;;;;;5008897;28;20238;-70
2024/03/05 04:27:26;;;;;;;61.10;33.40;;;6.90;99.90;;;;;;5001380;28;20210;-70
2024/03/05 04:30:03;;;;;;;72.13;33.70;;;6.90;99.90;;;;;;5015418;28;20425;-70
2024/03/05 04:32:29;;;;;;;65.20;32.27;;;6.90;99.90;;;;;;5015355;28;20436;-68
2024/03/05 04:35:01;;;;;;;68.77;35.30;;;6.90;99.90;;;;;;5013431;28;20418;-69
2024/03/05 04:37:30;;;;;;;63.70;33.97;;;6.90;99.90;;;;;;5015349;28;20247;-71
2024/03/05 04:39:57;;;;;;;54.07;30.17;;;6.90;99.90;;;;;;5012257;28;20432;-71
2024/03/05 04:42:23;;;;;;;56.47;32.10;;;6.90;99.90;;;;;;4989613;28;20510;-71
2024/03/05 04:44:49;;;;;;;59.27;32.50;;;6.90;99.90;;;;;;5013300;28;20417;-69
2024/03/05 04:47:15;;;;;;;71.00;36.30;;;6.90;99.90;;;;;;5013585;28;20734;-68
2024/03/05 04:49:40;;;;;;;60.80;35.10;;;6.90;99.90;;;;;;5014623;28;20190;-71
2024/03/05 04:52:07;;;;;;;64.20;34.97;;;6.90;99.90;;;;;;5011664;28;20693;-70
2024/03/05 04:54:34;;;;;;;61.23;32.13;;;6.90;99.90;;;;;;5014555;28;20242;-71
2024/03/05 04:57:00;;;;;;;62.47;34.53;;;6.90;99.90;;;;;;5006476;28;20472;-68
2024/03/05 04:59:25;;;;;;;68.13;34.33;;;6.90;99.90;;;;;;5015395;28;20434;-72
2024/03/05 05:01:51;;;;;;;55.50;31.27;;;6.90;99.90;;;;;;5006360;28;20602;-70
2024/03/05 05:04:17;;;;;;;58.90;32.50;;;7.00;99.90;;;;;;5012438;28;20254;-71
2024/03/05 05:06:42;;;;;;;55.33;30.90;;;7.00;99.90;;;;;;5018098;28;20203;-69
2024/03/05 05:09:08;;;;;;;63.00;32.77;;;7.00;99.90;;;;;;5018062;28;20215;-70
2024/03/05 05:11:33;;;;;;;60.97;33.73;;;6.90;99.90;;;;;;5011236;28;20183;-71
2024/03/05 05:13:59;;;;;;;60.47;31.40;;;6.90;99.90;;;;;;5011484;28;20199;-71
2024/03/05 05:16:26;;;;;;;65.00;33.50;;;7.00;99.90;;;;;;5011710;28;20215;-69
2024/03/05 05:18:52;;;;;;;61.20;31.43;;;7.00;99.90;;;;;;5014820;28;20229;-70
2024/03/05 05:21:18;;;;;;;63.20;32.00;;;6.90;99.90;;;;;;5017578;28;20425;-69
2024/03/05 05:23:43;;;;;;;62.70;31.80;;;6.90;99.90;;;;;;5016545;28;20419;-69
2024/03/05 05:26:12;;;;;;;68.90;34.57;;;6.90;99.90;;;;;;5009779;28;20626;-70
2024/03/05 05:28:40;;;;;;;61.20;31.57;;;6.90;99.90;;;;;;5016133;28;20457;-70
2024/03/05 05:31:08;;;;;;;62.03;33.00;;;6.90;99.90;;;;;;5012947;28;20714;-71
2024/03/05 05:33:33;;;;;;;63.87;33.80;;;6.90;99.90;;;;;;4964525;28;20493;-70
2024/03/05 05:35:59;;;;;;;61.33;31.93;;;6.90;99.90;;;;;;5015555;28;20532;-70
2024/03/05 05:38:24;;;;;;;58.70;32.37;;;6.90;99.90;;;;;;5017674;28;20199;-70
2024/03/05 05:40:50;;;;;;;59.67;30.17;;;6.80;99.90;;;;;;4987187;28;20515;-70
2024/03/05 05:43:15;;;;;;;62.23;32.33;;;6.90;99.90;;;;;;5013563;28;20218;-70
2024/03/05 05:45:41;;;;;;;63.40;32.50;;;6.80;99.90;;;;;;5017927;28;20494;-71
2024/03/05 05:48:23;;;;;;;63.27;32.17;;;6.80;99.90;;;;;;5008272;28;20246;-71
2024/03/05 05:50:58;;;;;;;66.27;33.00;;;6.90;99.90;;;;;;5013221;28;20567;-73
2024/03/05 05:53:24;;;;;;;75.13;35.57;;;6.90;99.90;;;;;;5016350;28;20429;-71
2024/03/05 05:55:49;;;;;;;69.73;33.70;;;6.90;99.90;;;;;;5015032;28;20434;-70
2024/03/05 05:58:15;;;;;;;72.87;36.90;;;6.90;99.90;;;;;;5011886;28;20191;-70
2024/03/05 06:00:41;;;;;;;67.97;34.13;;;6.90;99.90;;;;;;5016946;28;20183;-71
2024/03/05 06:03:07;;;;;;;73.23;35.20;;;6.90;99.90;;;;;;5012153;28;20261;-71
2024/03/05 06:05:36;;;;;;;70.17;34.27;;;6.90;99.90;;;;;;5012185;28;20427;-71
2024/03/05 06:08:21;;;;;;;65.83;31.23;;;6.90;99.90;;;;;;5019274;28;20422;-71
2024/03/05 06:10:46;;;;;;;78.50;36.43;;;6.90;99.90;;;;;;5012586;28;20653;-71
2024/03/05 06:13:13;;;;;;;58.77;31.47;;;6.90;99.90;;;;;;4989265;28;20466;-70
2024/03/05 06:15:38;;;;;;;77.20;36.43;;;6.90;99.90;;;;;;5016139;28;20237;-70
2024/03/05 06:18:05;;;;;;;68.77;33.87;;;7.00;99.90;;;;;;5016109;28;20426;-73
2024/03/05 06:20:32;;;;;;;65.97;34.40;;;7.00;99.90;;;;;;5021323;28;20751;-73
2024/03/05 06:22:59;;;;;;;72.30;34.63;;;7.00;99.90;;;;;;5014077;28;20488;-71
2024/03/05 06:25:26;;;;;;;70.03;32.23;;;7.00;99.90;;;;;;4989959;28;20430;-71
2024/03/05 06:27:52;;;;;;;65.23;32.20;;;7.10;99.90;;;;;;5010582;28;20429;-72
2024/03/05 06:30:18;;;;;;;60.60;32.53;;;7.10;99.90;;;;;;5019257;28;20441;-71
2024/03/05 06:32:48;;;;;;;60.73;32.00;;;7.10;99.90;;;;;;5019563;28;20316;-73
2024/03/05 06:35:15;;;;;;;65.03;32.23;;;7.10;99.90;;;;;;5014643;28;20888;-72
2024/03/05 06:37:46;;;;;;;69.33;33.37;;;7.10;99.90;;;;;;5017862;28;20449;-72
2024/03/05 06:40:13;;;;;;;55.57;29.20;;;7.10;99.90;;;;;;5014022;28;20719;-73
2024/03/05 06:42:41;;;;;;;61.40;31.67;;;7.10;99.90;;;;;;5009969;28;20473;-72
2024/03/05 06:45:14;;;;;;;75.53;35.20;;;7.10;99.90;;;;;;5018246;28;20440;-74
2024/03/05 06:47:54;;;;;;;62.03;33.60;;;7.10;99.90;;;;;;4989753;28;20579;-72
2024/03/05 06:50:23;;;;;;;60.33;31.03;;;7.10;99.90;;;;;;5013341;28;20437;-70
2024/03/05 06:58:22;;;;;;;75.43;36.20;;;7.20;99.90;;;;;;5014320;28;20426;-73
2024/03/05 07:00:49;;;;;;;65.77;33.77;;;7.20;99.90;;;;;;5018189;28;20430;-72
2024/03/05 07:03:15;;;;;;;64.00;32.93;;;7.30;99.90;;;;;;5016481;28;20481;-72
2024/03/05 07:05:42;;;;;;;59.07;31.13;;;7.30;99.90;;;;;;5015138;28;21049;-73
2024/03/05 07:08:08;;;;;;;57.47;27.20;;;7.30;99.90;;;;;;5019507;28;20191;-71
2024/03/05 07:10:35;;;;;;;50.87;29.00;;;7.30;99.90;;;;;;5010926;28;20431;-72
2024/03/05 07:13:01;;;;;;;64.40;32.47;;;7.30;99.90;;;;;;4984643;28;20608;-73
2024/03/05 07:15:27;;;;;;;65.10;32.27;;;7.40;99.90;;;;;;4988558;28;20427;-73
2024/03/05 07:17:52;;;;;;;72.93;32.50;;;7.40;99.90;;;;;;5022648;28;20721;-73
2024/03/05 07:20:18;;;;;;;59.93;33.30;;;7.40;99.90;;;;;;5001255;28;20203;-70
2024/03/05 07:22:47;;;;;;;59.93;32.10;;;7.50;99.90;;;;;;4991038;28;20219;-72
2024/03/05 07:25:17;;;;;;;57.20;30.07;;;7.50;99.90;;;;;;5016314;28;20183;-74
2024/03/05 07:27:46;;;;;;;56.13;31.10;;;7.50;99.90;;;;;;4975890;28;20450;-72
2024/03/05 07:30:16;;;;;;;55.40;28.57;;;7.50;99.90;;;;;;5016500;28;20423;-71
2024/03/05 07:32:45;;;;;;;71.60;33.27;;;7.50;99.90;;;;;;5011373;28;20446;-73
2024/03/05 07:35:11;;;;;;;68.67;33.20;;;7.60;99.90;;;;;;5014127;28;20498;-72
2024/03/05 07:37:37;;;;;;;48.80;28.07;;;7.60;99.90;;;;;;5023927;28;20732;-72
2024/03/05 07:40:11;;;;;;;71.57;32.77;;;7.60;99.90;;;;;;5019947;28;20435;-71
2024/03/05 07:42:47;;;;;;;65.40;31.57;;;7.60;99.90;;;;;;5006758;28;20462;-71
2024/03/05 07:45:17;;;;;;;66.07;29.67;;;7.60;99.90;;;;;;5022936;28;20841;-71
2024/03/05 07:47:44;;;;;;;63.57;30.83;;;7.60;99.90;;;;;;5017635;28;20599;-72
2024/03/05 07:50:12;;;;;;;69.10;34.40;;;7.60;99.90;;;;;;4988778;28;20438;-73
2024/03/05 07:52:42;;;;;;;78.13;32.40;;;7.60;99.90;;;;;;4997437;28;20707;-71
2024/03/05 07:55:10;;;;;;;67.67;32.10;;;7.60;99.90;;;;;;5019171;28;20418;-75
2024/03/05 07:57:40;;;;;;;67.00;31.83;;;7.50;99.90;;;;;;5022887;28;20450;-70
2024/03/05 08:00:13;;;;;;;62.50;34.17;;;7.50;99.90;;;;;;5022525;28;20445;-73
2024/03/05 08:02:49;;;;;;;66.70;31.13;;;7.50;99.90;;;;;;5011754;28;20513;-70
2024/03/05 08:05:17;;;;;;;67.40;34.17;;;7.60;99.90;;;;;;5015986;28;20422;-73
2024/03/05 08:07:43;;;;;;;73.67;36.17;;;7.60;99.90;;;;;;5010400;28;20471;-74
2024/03/05 08:10:10;;;;;;;65.30;32.50;;;7.60;99.90;;;;;;4965213;28;20463;-71
2024/03/05 08:12:38;;;;;;;85.73;36.73;;;7.60;99.90;;;;;;5009030;28;20435;-73
2024/03/05 08:15:04;;;;;;;64.50;31.90;;;7.60;99.90;;;;;;5009260;28;20450;-72
2024/03/05 08:17:36;;;;;;;64.23;30.70;;;7.60;99.90;;;;;;5016131;28;20465;-74
2024/03/05 08:20:03;;;;;;;76.17;35.67;;;7.70;99.90;;;;;;5004144;28;20858;-72
2024/03/05 08:22:29;;;;;;;61.17;32.27;;;7.70;99.90;;;;;;5006298;28;20494;-73
2024/03/05 08:24:55;;;;;;;58.77;32.67;;;7.70;99.90;;;;;;4992611;28;20427;-71
2024/03/05 08:27:21;;;;;;;72.93;33.07;;;7.70;99.90;;;;;;5012848;28;20889;-73
2024/03/05 08:29:49;;;;;;;63.70;31.77;;;7.70;99.90;;;;;;5008636;28;20187;-74
2024/03/05 08:32:16;;;;;;;65.53;32.57;;;7.70;99.90;;;;;;5016606;28;20187;-74
2024/03/05 08:34:42;;;;;;;56.00;28.20;;;7.80;99.90;;;;;;4986818;28;20426;-72
2024/03/05 08:37:11;;;;;;;60.90;29.80;;;7.80;99.90;;;;;;5014369;28;20472;-71
2024/03/05 08:39:39;;;;;;;62.60;31.67;;;7.80;99.90;;;;;;5019904;28;20436;-73
2024/03/05 08:42:05;;;;;;;62.37;32.33;;;7.80;99.90;;;;;;5015395;28;20459;-73
2024/03/05 08:44:31;;;;;;;59.00;29.80;;;7.80;99.90;;;;;;5009343;28;20412;-72
2024/03/05 08:46:57;;;;;;;59.67;29.80;;;7.80;99.90;;;;;;5020052;28;20445;-73
2024/03/05 08:49:25;;;;;;;64.37;33.00;;;7.80;99.90;;;;;;4990841;28;20415;-72
2024/03/05 08:51:57;;;;;;;76.00;35.77;;;7.90;99.90;;;;;;5008338;28;20979;-74
2024/03/05 08:54:23;;;;;;;66.13;32.23;;;7.90;99.90;;;;;;5024316;28;20426;-72
2024/03/05 08:56:49;;;;;;;64.07;30.40;;;7.90;99.90;;;;;;4993045;28;20794;-73
2024/03/05 08:59:14;;;;;;;53.93;30.63;;;7.90;99.90;;;;;;5017846;28;20190;-73
2024/03/05 09:01:40;;;;;;;54.80;29.10;;;7.90;99.90;;;;;;5021160;28;20229;-73
2024/03/05 09:04:06;;;;;;;49.83;28.90;;;7.90;99.90;;;;;;5014031;28;20201;-72
2024/03/05 09:06:38;;;;;;;49.30;25.57;;;7.90;99.90;;;;;;5016818;28;20207;-72
2024/03/05 09:09:03;;;;;;;49.40;26.77;;;7.90;99.90;;;;;;4990129;28;20485;-74
2024/03/05 09:11:29;;;;;;;54.90;28.67;;;7.90;99.90;;;;;;4997805;28;20423;-70
2024/03/05 09:13:54;;;;;;;57.23;29.67;;;7.90;99.90;;;;;;5015440;28;20410;-73
2024/03/05 09:16:20;;;;;;;53.90;29.40;;;7.80;99.90;;;;;;4994027;28;20215;-72
2024/03/05 09:18:46;;;;;;;47.90;24.40;;;7.80;99.90;;;;;;5018288;28;20187;-73
2024/03/05 09:21:12;;;;;;;42.10;24.93;;;7.80;99.90;;;;;;5005321;28;21605;-75
2024/03/05 09:23:41;;;;;;;47.30;24.67;;;7.80;99.90;;;;;;4987964;28;20485;-72
2024/03/05 09:26:07;;;;;;;41.53;22.53;;;7.80;99.90;;;;;;5009488;28;20214;-72
2024/03/05 09:28:34;;;;;;;46.73;23.73;;;7.80;99.90;;;;;;4982729;28;20446;-73
2024/03/05 09:31:00;;;;;;;43.73;23.30;;;7.80;99.90;;;;;;5009845;28;20431;-72
2024/03/05 09:33:26;;;;;;;47.20;24.53;;;7.80;99.90;;;;;;5013028;28;20429;-72
2024/03/05 09:35:52;;;;;;;49.27;25.37;;;7.80;99.90;;;;;;5011411;28;20223;-72
2024/03/05 09:38:18;;;;;;;45.00;25.00;;;7.80;99.90;;;;;;5012187;28;20446;-72
2024/03/05 09:40:45;;;;;;;47.63;25.37;;;7.80;99.90;;;;;;5007958;28;20439;-72
2024/03/05 09:43:13;;;;;;;49.07;26.77;;;7.70;99.90;;;;;;5018485;28;20810;-71
2024/03/05 09:45:41;;;;;;;44.93;26.17;;;7.80;99.90;;;;;;5013313;28;20419;-72
2024/03/05 09:48:09;;;;;;;41.47;22.47;;;7.70;99.90;;;;;;5015124;28;20855;-73
2024/03/05 09:50:36;;;;;;;44.03;22.87;;;7.80;99.90;;;;;;4988587;28;20473;-72
2024/03/05 09:53:03;;;;;;;42.20;23.67;;;7.80;99.90;;;;;;5011807;28;20434;-74
2024/03/05 09:55:29;;;;;;;41.50;22.27;;;7.80;99.90;;;;;;5015877;28;20446;-72
2024/03/05 09:57:55;;;;;;;36.67;21.07;;;7.90;99.90;;;;;;4995996;28;20533;-74
2024/03/05 10:00:22;;;;;;;43.60;21.17;;;7.90;99.90;;;;;;4976957;28;20453;-73
2024/03/05 10:02:49;;;;;;;39.60;19.20;;;7.90;99.90;;;;;;5016215;28;20457;-73
2024/03/05 10:05:25;;;;;;;37.10;20.77;;;7.90;99.90;;;;;;4993787;28;20434;-72
2024/03/05 10:07:50;;;;;;;36.70;21.63;;;8.00;99.90;;;;;;5018561;28;20504;-73
2024/03/05 10:10:20;;;;;;;38.43;20.70;;;8.00;99.90;;;;;;5021693;28;20425;-72
2024/03/05 10:12:45;;;;;;;35.47;18.90;;;8.00;99.90;;;;;;5016776;28;20202;-73
2024/03/05 10:15:17;;;;;;;37.23;22.40;;;8.10;99.90;;;;;;5012100;28;20446;-72
2024/03/05 10:17:44;;;;;;;49.43;25.67;;;8.10;99.90;;;;;;5005314;28;20220;-71
2024/03/05 10:20:23;;;;;;;47.27;25.10;;;8.20;99.90;;;;;;5000578;28;20435;-72
2024/03/05 10:22:53;;;;;;;54.57;27.50;;;8.20;99.90;;;;;;5009250;28;20458;-72
2024/03/05 10:25:20;;;;;;;68.03;30.73;;;8.20;99.90;;;;;;4967871;28;20508;-72
2024/03/05 10:27:47;;;;;;;54.30;27.47;;;8.20;99.90;;;;;;5018910;28;20445;-75
2024/03/05 10:30:33;;;;;;;57.77;28.50;;;8.20;99.90;;;;;;5008990;28;20419;-73
2024/03/05 10:33:04;;;;;;;55.20;28.47;;;8.30;99.90;;;;;;5009597;28;20706;-75
2024/03/05 10:35:31;;;;;;;49.47;27.20;;;8.30;99.90;;;;;;4992816;28;20487;-73
2024/03/05 10:38:03;;;;;;;47.50;25.80;;;8.30;99.90;;;;;;5003808;28;20464;-73
2024/03/05 10:40:32;;;;;;;51.83;27.70;;;8.30;99.90;;;;;;5009061;28;20438;-74
2024/03/05 10:43:08;;;;;;;56.10;28.23;;;8.20;99.90;;;;;;5014898;28;20900;-71
2024/03/05 10:45:37;;;;;;;45.80;23.77;;;8.20;99.90;;;;;;5009254;28;20414;-70
2024/03/05 10:48:04;;;;;;;52.73;28.77;;;8.20;99.90;;;;;;5010605;28;20433;-70
2024/03/05 10:50:33;;;;;;;51.53;25.73;;;8.30;99.90;;;;;;5016999;28;20490;-75
2024/03/05 10:53:01;;;;;;;54.60;27.83;;;8.30;99.90;;;;;;5015450;28;20777;-73
2024/03/05 10:55:26;;;;;;;62.87;31.27;;;8.30;99.90;;;;;;4995019;28;20519;-72
2024/03/05 11:00:38;;;;;;;44.93;25.63;;;8.30;99.90;;;;;;5009595;28;20200;-73
2024/03/05 11:03:11;;;;;;;56.87;31.10;;;8.30;99.90;;;;;;5012139;28;20924;-73
2024/03/05 11:05:51;;;;;;;54.60;28.13;;;8.30;99.90;;;;;;4992205;28;20446;-72
2024/03/05 11:08:19;;;;;;;60.87;28.30;;;8.30;99.90;;;;;;5009539;28;20421;-73
2024/03/05 11:10:51;;;;;;;50.97;27.30;;;8.30;99.90;;;;;;5017788;28;20402;-73
2024/03/05 11:13:18;;;;;;;43.87;25.80;;;8.30;99.90;;;;;;5012743;28;20442;-71
2024/03/05 11:15:44;;;;;;;50.33;25.80;;;8.40;99.90;;;;;;5009633;28;20477;-75
2024/03/05 11:18:31;;;;;;;45.00;24.53;;;8.40;99.90;;;;;;4992499;28;20390;-72
2024/03/05 11:21:01;;;;;;;41.93;22.20;;;8.50;99.90;;;;;;4990043;28;20474;-75
2024/03/05 11:23:29;;;;;;;36.57;21.90;;;8.40;99.90;;;;;;5013682;28;20474;-73
2024/03/05 11:26:03;;;;;;;49.43;26.90;;;8.40;99.90;;;;;;5022550;28;20465;-73
2024/03/05 11:28:29;;;;;;;50.27;24.60;;;8.30;99.90;;;;;;5018795;28;20517;-72
2024/03/05 11:31:17;;;;;;;46.17;22.47;;;8.30;99.90;;;;;;5000789;28;20482;-72
2024/03/05 11:33:43;;;;;;;48.77;24.70;;;8.30;99.90;;;;;;5009000;28;20195;-74
2024/03/05 11:36:20;;;;;;;40.37;22.73;;;8.30;99.90;;;;;;5017248;28;20473;-74
2024/03/05 11:39:04;;;;;;;45.13;23.43;;;8.20;99.90;;;;;;5017109;28;20529;-73
2024/03/05 11:41:32;;;;;;;54.83;26.63;;;8.20;99.90;;;;;;5006892;28;20437;-74
2024/03/05 11:43:58;;;;;;;46.73;24.87;;;8.20;99.90;;;;;;4995995;28;20398;-73
2024/03/05 11:46:47;;;;;;;48.97;26.60;;;8.20;99.90;;;;;;5016613;28;20919;-72
2024/03/05 11:49:14;;;;;;;58.27;27.97;;;8.20;99.90;;;;;;5019179;28;20187;-74
2024/03/05 11:51:41;;;;;;;43.83;24.67;;;8.20;99.90;;;;;;5010788;28;20482;-72
2024/03/05 11:54:08;;;;;;;43.87;23.80;;;8.20;99.90;;;;;;5009515;28;20430;-74
2024/03/05 11:56:35;;;;;;;40.20;22.10;;;8.30;99.90;;;;;;4992380;28;20445;-74
2024/03/05 11:59:00;;;;;;;44.33;25.17;;;8.30;99.90;;;;;;4998491;28;20460;-73
2024/03/05 12:01:28;;;;;;;46.27;25.77;;;8.40;99.90;;;;;;5020886;28;20578;-71
2024/03/05 12:04:06;;;;;;;48.63;23.80;;;8.40;99.90;;;;;;4994847;28;20282;-75
2024/03/05 12:06:35;;;;;;;40.60;24.47;;;8.40;99.90;;;;;;5025077;28;20433;-78
2024/03/05 12:09:18;;;;;;;32.20;20.00;;;8.50;99.90;;;;;;4995136;28;20426;-73
2024/03/05 12:12:18;;;;;;;28.47;19.40;;;8.50;99.90;;;;;;4997017;28;20418;-71
2024/03/05 12:14:50;;;;;;;34.27;21.57;;;8.70;99.90;;;;;;4977534;28;20439;-74
2024/03/05 12:17:18;;;;;;;31.03;19.93;;;8.80;99.90;;;;;;4979594;28;20450;-73
2024/03/05 12:19:44;;;;;;;30.37;18.07;;;8.90;99.90;;;;;;4989853;28;20473;-72
2024/03/05 12:22:10;;;;;;;29.27;16.93;;;8.90;99.90;;;;;;4997929;28;20474;-72
2024/03/05 12:24:36;;;;;;;29.63;18.00;;;9.10;99.90;;;;;;5022295;28;20429;-72
2024/03/05 12:27:04;;;;;;;23.93;16.83;;;9.20;99.90;;;;;;5019731;28;20631;-73
2024/03/05 12:29:37;;;;;;;28.57;17.83;;;9.30;99.90;;;;;;5015807;28;20507;-71
2024/03/05 12:32:05;;;;;;;25.73;19.20;;;9.30;99.90;;;;;;4993958;28;20411;-72
2024/03/05 12:34:31;;;;;;;18.93;14.47;;;9.30;99.90;;;;;;4995514;28;20478;-73
2024/03/05 12:36:57;;;;;;;24.33;16.70;;;9.40;99.90;;;;;;5019101;28;20439;-74
2024/03/05 12:39:22;;;;;;;22.83;14.83;;;9.40;99.90;;;;;;4999271;28;20434;-75
2024/03/05 12:42:08;;;;;;;24.53;14.70;;;9.30;99.90;;;;;;5017543;28;20224;-74
2024/03/05 12:44:34;;;;;;;25.37;15.90;;;9.30;99.90;;;;;;4986848;28;20199;-74
2024/03/05 12:47:07;;;;;;;22.50;16.67;;;9.20;99.90;;;;;;4995576;28;20440;-73